sensor_id;sensor_type;location;lat;lon;timestamp;P1;durP1;ratioP1;P2;durP2;ratioP2
32613;SDS011;19031;51.400;6.770;2023-12-20T00:00:54;25.88;;;11.43;;
32613;SDS011;19031;51.400;6.770;2023-12-20T00:03:19;23.80;;;10.35;;
32613;SDS011;19031;51.400;6.770;2023-12-20T00:05:45;20.92;;;10.18;;
32613;SDS011;19031;51.400;6.770;2023-12-20T00:08:12;25.38;;;10.05;;
32613;SDS011;19031;51.400;6.770;2023-12-20T00:10:37;24.17;;;10.73;;
32613;SDS011;19031;51.400;6.770;2023-12-20T00:13:03;22.30;;;11.10;;
32613;SDS011;19031;51.400;6.770;2023-12-20T00:15:28;21.17;;;9.73;;
32613;SDS011;19031;51.400;6.770;2023-12-20T00:17:54;20.77;;;9.40;;
32613;SDS011;19031;51.400;6.770;2023-12-20T00:20:19;22.17;;;9.57;;
32613;SDS011;19031;51.400;6.770;2023-12-20T00:22:45;23.75;;;10.80;;
32613;SDS011;19031;51.400;6.770;2023-12-20T00:25:11;28.58;;;10.85;;
32613;SDS011;19031;51.400;6.770;2023-12-20T00:27:36;24.15;;;10.13;;
32613;SDS011;19031;51.400;6.770;2023-12-20T00:30:02;29.13;;;10.18;;
32613;SDS011;19031;51.400;6.770;2023-12-20T00:32:28;26.17;;;11.20;;
32613;SDS011;19031;51.400;6.770;2023-12-20T00:34:54;23.77;;;10.45;;
32613;SDS011;19031;51.400;6.770;2023-12-20T00:37:19;27.98;;;8.65;;
32613;SDS011;19031;51.400;6.770;2023-12-20T00:39:45;29.92;;;10.48;;
32613;SDS011;19031;51.400;6.770;2023-12-20T00:42:10;21.02;;;10.38;;
32613;SDS011;19031;51.400;6.770;2023-12-20T00:44:36;22.75;;;9.73;;
32613;SDS011;19031;51.400;6.770;2023-12-20T00:47:01;22.25;;;9.45;;
32613;SDS011;19031;51.400;6.770;2023-12-20T00:49:27;21.45;;;10.45;;
32613;SDS011;19031;51.400;6.770;2023-12-20T00:51:52;23.08;;;9.80;;
32613;SDS011;19031;51.400;6.770;2023-12-20T00:54:18;25.63;;;10.23;;
32613;SDS011;19031;51.400;6.770;2023-12-20T00:56:43;27.80;;;9.80;;
32613;SDS011;19031;51.400;6.770;2023-12-20T00:59:09;23.08;;;10.38;;
32613;SDS011;19031;51.400;6.770;2023-12-20T01:01:35;24.10;;;10.52;;
32613;SDS011;19031;51.400;6.770;2023-12-20T01:04:01;25.58;;;11.18;;
32613;SDS011;19031;51.400;6.770;2023-12-20T01:06:26;25.05;;;10.32;;
32613;SDS011;19031;51.400;6.770;2023-12-20T01:08:52;24.83;;;10.88;;
32613;SDS011;19031;51.400;6.770;2023-12-20T01:11:18;26.83;;;10.75;;
32613;SDS011;19031;51.400;6.770;2023-12-20T01:13:43;23.65;;;11.23;;
32613;SDS011;19031;51.400;6.770;2023-12-20T01:16:10;30.48;;;12.10;;
32613;SDS011;19031;51.400;6.770;2023-12-20T01:18:36;25.88;;;11.60;;
32613;SDS011;19031;51.400;6.770;2023-12-20T01:21:02;24.10;;;12.55;;
32613;SDS011;19031;51.400;6.770;2023-12-20T01:23:28;32.17;;;11.85;;
32613;SDS011;19031;51.400;6.770;2023-12-20T01:25:54;28.50;;;11.85;;
32613;SDS011;19031;51.400;6.770;2023-12-20T01:28:20;29.17;;;12.32;;
32613;SDS011;19031;51.400;6.770;2023-12-20T01:30:45;29.63;;;11.32;;
32613;SDS011;19031;51.400;6.770;2023-12-20T01:33:11;27.13;;;11.98;;
32613;SDS011;19031;51.400;6.770;2023-12-20T01:35:37;32.30;;;12.15;;
32613;SDS011;19031;51.400;6.770;2023-12-20T01:38:02;29.98;;;11.77;;
32613;SDS011;19031;51.400;6.770;2023-12-20T01:40:28;26.23;;;11.50;;
32613;SDS011;19031;51.400;6.770;2023-12-20T01:43:00;30.77;;;12.45;;
32613;SDS011;19031;51.400;6.770;2023-12-20T01:45:30;25.88;;;10.55;;
32613;SDS011;19031;51.400;6.770;2023-12-20T01:47:56;29.02;;;10.45;;
32613;SDS011;19031;51.400;6.770;2023-12-20T01:50:23;25.60;;;10.95;;
32613;SDS011;19031;51.400;6.770;2023-12-20T01:52:49;24.92;;;10.77;;
32613;SDS011;19031;51.400;6.770;2023-12-20T01:55:17;23.15;;;10.20;;
32613;SDS011;19031;51.400;6.770;2023-12-20T01:57:44;22.33;;;9.63;;
32613;SDS011;19031;51.400;6.770;2023-12-20T02:00:11;28.83;;;10.30;;
32613;SDS011;19031;51.400;6.770;2023-12-20T02:02:39;33.55;;;10.65;;
32613;SDS011;19031;51.400;6.770;2023-12-20T02:05:05;25.95;;;9.98;;
32613;SDS011;19031;51.400;6.770;2023-12-20T02:07:31;28.15;;;9.75;;
32613;SDS011;19031;51.400;6.770;2023-12-20T02:09:58;24.83;;;10.18;;
32613;SDS011;19031;51.400;6.770;2023-12-20T02:12:23;29.60;;;10.95;;
32613;SDS011;19031;51.400;6.770;2023-12-20T02:14:49;26.90;;;10.52;;
32613;SDS011;19031;51.400;6.770;2023-12-20T02:17:15;31.88;;;9.13;;
32613;SDS011;19031;51.400;6.770;2023-12-20T02:19:41;17.80;;;8.93;;
32613;SDS011;19031;51.400;6.770;2023-12-20T02:22:09;31.42;;;9.02;;
32613;SDS011;19031;51.400;6.770;2023-12-20T02:24:35;22.95;;;10.43;;
32613;SDS011;19031;51.400;6.770;2023-12-20T02:27:00;29.63;;;8.88;;
32613;SDS011;19031;51.400;6.770;2023-12-20T02:29:26;34.92;;;11.15;;
32613;SDS011;19031;51.400;6.770;2023-12-20T02:31:52;27.38;;;10.18;;
32613;SDS011;19031;51.400;6.770;2023-12-20T02:34:17;21.33;;;8.88;;
32613;SDS011;19031;51.400;6.770;2023-12-20T02:36:43;25.38;;;8.90;;
32613;SDS011;19031;51.400;6.770;2023-12-20T02:39:08;26.35;;;8.93;;
32613;SDS011;19031;51.400;6.770;2023-12-20T02:41:34;25.63;;;8.90;;
32613;SDS011;19031;51.400;6.770;2023-12-20T02:44:01;21.65;;;8.75;;
32613;SDS011;19031;51.400;6.770;2023-12-20T02:46:26;28.70;;;8.18;;
32613;SDS011;19031;51.400;6.770;2023-12-20T02:48:52;19.60;;;7.63;;
32613;SDS011;19031;51.400;6.770;2023-12-20T02:51:17;22.67;;;8.43;;
32613;SDS011;19031;51.400;6.770;2023-12-20T02:53:43;19.90;;;7.80;;
32613;SDS011;19031;51.400;6.770;2023-12-20T02:56:08;23.05;;;8.60;;
32613;SDS011;19031;51.400;6.770;2023-12-20T02:58:34;32.35;;;7.85;;
32613;SDS011;19031;51.400;6.770;2023-12-20T03:01:00;40.17;;;7.97;;
32613;SDS011;19031;51.400;6.770;2023-12-20T03:03:25;25.98;;;7.70;;
32613;SDS011;19031;51.400;6.770;2023-12-20T03:05:51;25.85;;;6.75;;
32613;SDS011;19031;51.400;6.770;2023-12-20T03:08:17;17.80;;;6.43;;
32613;SDS011;19031;51.400;6.770;2023-12-20T03:10:42;24.42;;;6.07;;
32613;SDS011;19031;51.400;6.770;2023-12-20T03:13:08;22.17;;;6.57;;
32613;SDS011;19031;51.400;6.770;2023-12-20T03:15:33;25.88;;;5.75;;
32613;SDS011;19031;51.400;6.770;2023-12-20T03:17:59;24.25;;;6.20;;
32613;SDS011;19031;51.400;6.770;2023-12-20T03:20:25;21.55;;;5.70;;
32613;SDS011;19031;51.400;6.770;2023-12-20T03:22:53;20.98;;;4.68;;
32613;SDS011;19031;51.400;6.770;2023-12-20T03:25:19;21.08;;;5.53;;
32613;SDS011;19031;51.400;6.770;2023-12-20T03:27:44;23.92;;;5.38;;
32613;SDS011;19031;51.400;6.770;2023-12-20T03:30:10;29.80;;;4.85;;
32613;SDS011;19031;51.400;6.770;2023-12-20T03:32:36;18.98;;;4.65;;
32613;SDS011;19031;51.400;6.770;2023-12-20T03:35:03;20.77;;;4.45;;
32613;SDS011;19031;51.400;6.770;2023-12-20T03:37:29;14.48;;;3.42;;
32613;SDS011;19031;51.400;6.770;2023-12-20T03:39:54;21.85;;;3.55;;
32613;SDS011;19031;51.400;6.770;2023-12-20T03:42:20;21.30;;;4.97;;
32613;SDS011;19031;51.400;6.770;2023-12-20T03:44:45;17.58;;;4.88;;
32613;SDS011;19031;51.400;6.770;2023-12-20T03:47:11;23.20;;;4.28;;
32613;SDS011;19031;51.400;6.770;2023-12-20T03:49:36;24.88;;;5.25;;
32613;SDS011;19031;51.400;6.770;2023-12-20T03:52:04;22.17;;;3.90;;
32613;SDS011;19031;51.400;6.770;2023-12-20T03:54:30;29.20;;;4.53;;
32613;SDS011;19031;51.400;6.770;2023-12-20T03:56:56;17.65;;;3.45;;
32613;SDS011;19031;51.400;6.770;2023-12-20T03:59:21;29.15;;;5.35;;
32613;SDS011;19031;51.400;6.770;2023-12-20T04:01:47;18.70;;;3.75;;
32613;SDS011;19031;51.400;6.770;2023-12-20T04:04:12;16.83;;;4.55;;
32613;SDS011;19031;51.400;6.770;2023-12-20T04:06:38;16.02;;;4.03;;
32613;SDS011;19031;51.400;6.770;2023-12-20T04:09:04;13.70;;;3.75;;
32613;SDS011;19031;51.400;6.770;2023-12-20T04:11:30;17.80;;;3.67;;
32613;SDS011;19031;51.400;6.770;2023-12-20T04:13:56;17.42;;;4.00;;
32613;SDS011;19031;51.400;6.770;2023-12-20T04:16:21;25.67;;;4.13;;
32613;SDS011;19031;51.400;6.770;2023-12-20T04:18:47;17.00;;;3.72;;
32613;SDS011;19031;51.400;6.770;2023-12-20T04:21:12;13.70;;;3.33;;
32613;SDS011;19031;51.400;6.770;2023-12-20T04:23:38;19.13;;;4.10;;
32613;SDS011;19031;51.400;6.770;2023-12-20T04:26:03;22.10;;;4.30;;
32613;SDS011;19031;51.400;6.770;2023-12-20T04:28:29;22.70;;;4.88;;
32613;SDS011;19031;51.400;6.770;2023-12-20T04:30:55;34.15;;;4.60;;
32613;SDS011;19031;51.400;6.770;2023-12-20T04:33:21;19.83;;;4.80;;
32613;SDS011;19031;51.400;6.770;2023-12-20T04:35:47;23.90;;;4.60;;
32613;SDS011;19031;51.400;6.770;2023-12-20T04:38:13;20.98;;;5.10;;
32613;SDS011;19031;51.400;6.770;2023-12-20T04:40:38;36.03;;;5.97;;
32613;SDS011;19031;51.400;6.770;2023-12-20T04:43:06;27.92;;;6.47;;
32613;SDS011;19031;51.400;6.770;2023-12-20T04:45:32;22.35;;;5.68;;
32613;SDS011;19031;51.400;6.770;2023-12-20T04:47:57;20.17;;;5.30;;
32613;SDS011;19031;51.400;6.770;2023-12-20T04:50:23;25.27;;;6.07;;
32613;SDS011;19031;51.400;6.770;2023-12-20T04:52:48;20.48;;;6.88;;
32613;SDS011;19031;51.400;6.770;2023-12-20T04:55:14;36.03;;;7.22;;
32613;SDS011;19031;51.400;6.770;2023-12-20T04:57:40;25.58;;;6.70;;
32613;SDS011;19031;51.400;6.770;2023-12-20T05:00:05;19.80;;;6.20;;
32613;SDS011;19031;51.400;6.770;2023-12-20T05:02:33;20.27;;;6.25;;
32613;SDS011;19031;51.400;6.770;2023-12-20T05:04:59;25.15;;;7.22;;
32613;SDS011;19031;51.400;6.770;2023-12-20T05:07:25;26.83;;;7.32;;
32613;SDS011;19031;51.400;6.770;2023-12-20T05:09:50;19.20;;;7.00;;
32613;SDS011;19031;51.400;6.770;2023-12-20T05:12:16;27.35;;;7.93;;
32613;SDS011;19031;51.400;6.770;2023-12-20T05:14:42;31.20;;;7.68;;
32613;SDS011;19031;51.400;6.770;2023-12-20T05:17:07;15.20;;;6.65;;
32613;SDS011;19031;51.400;6.770;2023-12-20T05:19:33;29.35;;;7.38;;
32613;SDS011;19031;51.400;6.770;2023-12-20T05:22:00;26.63;;;7.80;;
32613;SDS011;19031;51.400;6.770;2023-12-20T05:24:26;29.65;;;7.15;;
32613;SDS011;19031;51.400;6.770;2023-12-20T05:26:52;27.25;;;6.55;;
32613;SDS011;19031;51.400;6.770;2023-12-20T05:29:18;29.30;;;7.07;;
32613;SDS011;19031;51.400;6.770;2023-12-20T05:31:43;35.75;;;8.60;;
32613;SDS011;19031;51.400;6.770;2023-12-20T05:34:09;32.13;;;7.57;;
32613;SDS011;19031;51.400;6.770;2023-12-20T05:36:34;23.13;;;7.53;;
32613;SDS011;19031;51.400;6.770;2023-12-20T05:39:01;20.55;;;7.28;;
32613;SDS011;19031;51.400;6.770;2023-12-20T05:41:27;27.50;;;7.22;;
32613;SDS011;19031;51.400;6.770;2023-12-20T05:43:52;26.02;;;7.40;;
32613;SDS011;19031;51.400;6.770;2023-12-20T05:46:18;33.03;;;8.15;;
32613;SDS011;19031;51.400;6.770;2023-12-20T05:48:43;35.08;;;7.57;;
32613;SDS011;19031;51.400;6.770;2023-12-20T05:51:11;28.83;;;6.47;;
32613;SDS011;19031;51.400;6.770;2023-12-20T05:53:36;31.23;;;6.75;;
32613;SDS011;19031;51.400;6.770;2023-12-20T05:56:02;28.30;;;7.78;;
32613;SDS011;19031;51.400;6.770;2023-12-20T05:58:29;29.67;;;7.30;;
32613;SDS011;19031;51.400;6.770;2023-12-20T06:00:54;28.73;;;6.25;;
32613;SDS011;19031;51.400;6.770;2023-12-20T06:03:20;27.80;;;6.70;;
32613;SDS011;19031;51.400;6.770;2023-12-20T06:05:46;20.58;;;5.82;;
32613;SDS011;19031;51.400;6.770;2023-12-20T06:08:11;21.70;;;6.90;;
32613;SDS011;19031;51.400;6.770;2023-12-20T06:10:37;26.60;;;6.60;;
32613;SDS011;19031;51.400;6.770;2023-12-20T06:13:03;24.95;;;6.53;;
32613;SDS011;19031;51.400;6.770;2023-12-20T06:15:29;20.15;;;6.38;;
32613;SDS011;19031;51.400;6.770;2023-12-20T06:17:55;27.13;;;6.13;;
32613;SDS011;19031;51.400;6.770;2023-12-20T06:20:20;30.80;;;7.75;;
32613;SDS011;19031;51.400;6.770;2023-12-20T06:22:46;26.58;;;7.10;;
32613;SDS011;19031;51.400;6.770;2023-12-20T06:25:12;27.42;;;5.95;;
32613;SDS011;19031;51.400;6.770;2023-12-20T06:27:37;28.38;;;6.45;;
32613;SDS011;19031;51.400;6.770;2023-12-20T06:30:03;26.75;;;5.65;;
32613;SDS011;19031;51.400;6.770;2023-12-20T06:32:29;20.60;;;6.13;;
32613;SDS011;19031;51.400;6.770;2023-12-20T06:34:55;27.48;;;6.97;;
32613;SDS011;19031;51.400;6.770;2023-12-20T06:37:20;21.95;;;5.40;;
32613;SDS011;19031;51.400;6.770;2023-12-20T06:39:46;25.77;;;6.80;;
32613;SDS011;19031;51.400;6.770;2023-12-20T06:42:12;25.20;;;6.75;;
32613;SDS011;19031;51.400;6.770;2023-12-20T06:44:38;26.40;;;6.80;;
32613;SDS011;19031;51.400;6.770;2023-12-20T06:47:04;20.40;;;4.95;;
32613;SDS011;19031;51.400;6.770;2023-12-20T06:49:29;22.65;;;6.65;;
32613;SDS011;19031;51.400;6.770;2023-12-20T06:51:55;29.33;;;5.95;;
32613;SDS011;19031;51.400;6.770;2023-12-20T06:54:20;18.55;;;5.78;;
32613;SDS011;19031;51.400;6.770;2023-12-20T06:56:46;28.27;;;5.50;;
32613;SDS011;19031;51.400;6.770;2023-12-20T06:59:12;25.00;;;6.00;;
32613;SDS011;19031;51.400;6.770;2023-12-20T07:01:37;28.20;;;6.05;;
32613;SDS011;19031;51.400;6.770;2023-12-20T07:04:03;21.63;;;5.40;;
32613;SDS011;19031;51.400;6.770;2023-12-20T07:06:29;20.42;;;5.85;;
32613;SDS011;19031;51.400;6.770;2023-12-20T07:08:54;22.83;;;6.10;;
32613;SDS011;19031;51.400;6.770;2023-12-20T07:11:20;24.02;;;6.03;;
32613;SDS011;19031;51.400;6.770;2023-12-20T07:13:45;28.35;;;6.97;;
32613;SDS011;19031;51.400;6.770;2023-12-20T07:16:11;23.77;;;5.97;;
32613;SDS011;19031;51.400;6.770;2023-12-20T07:18:38;19.75;;;5.65;;
32613;SDS011;19031;51.400;6.770;2023-12-20T07:21:03;18.85;;;5.90;;
32613;SDS011;19031;51.400;6.770;2023-12-20T07:23:29;26.98;;;6.72;;
32613;SDS011;19031;51.400;6.770;2023-12-20T07:25:54;27.90;;;7.35;;
32613;SDS011;19031;51.400;6.770;2023-12-20T07:28:20;24.15;;;6.13;;
32613;SDS011;19031;51.400;6.770;2023-12-20T07:30:46;23.40;;;6.45;;
32613;SDS011;19031;51.400;6.770;2023-12-20T07:33:11;29.17;;;6.80;;
32613;SDS011;19031;51.400;6.770;2023-12-20T07:35:37;23.30;;;5.55;;
32613;SDS011;19031;51.400;6.770;2023-12-20T07:38:03;25.45;;;5.80;;
32613;SDS011;19031;51.400;6.770;2023-12-20T07:40:28;29.15;;;6.97;;
32613;SDS011;19031;51.400;6.770;2023-12-20T07:42:54;28.23;;;6.05;;
32613;SDS011;19031;51.400;6.770;2023-12-20T07:45:20;22.58;;;6.70;;
32613;SDS011;19031;51.400;6.770;2023-12-20T07:47:45;19.42;;;5.43;;
32613;SDS011;19031;51.400;6.770;2023-12-20T07:50:11;28.45;;;6.03;;
32613;SDS011;19031;51.400;6.770;2023-12-20T07:52:36;26.30;;;6.55;;
32613;SDS011;19031;51.400;6.770;2023-12-20T07:55:02;22.17;;;6.70;;
32613;SDS011;19031;51.400;6.770;2023-12-20T07:57:29;26.60;;;6.30;;
32613;SDS011;19031;51.400;6.770;2023-12-20T07:59:55;30.73;;;6.47;;
32613;SDS011;19031;51.400;6.770;2023-12-20T08:02:21;20.23;;;6.00;;
32613;SDS011;19031;51.400;6.770;2023-12-20T08:04:46;17.38;;;5.93;;
32613;SDS011;19031;51.400;6.770;2023-12-20T08:07:12;30.55;;;6.85;;
32613;SDS011;19031;51.400;6.770;2023-12-20T08:09:37;22.50;;;6.55;;
32613;SDS011;19031;51.400;6.770;2023-12-20T08:12:03;23.95;;;6.85;;
32613;SDS011;19031;51.400;6.770;2023-12-20T08:14:29;22.42;;;6.90;;
32613;SDS011;19031;51.400;6.770;2023-12-20T08:16:54;23.10;;;7.20;;
32613;SDS011;19031;51.400;6.770;2023-12-20T08:19:20;20.23;;;7.25;;
32613;SDS011;19031;51.400;6.770;2023-12-20T08:21:46;26.50;;;6.45;;
32613;SDS011;19031;51.400;6.770;2023-12-20T08:24:11;21.38;;;6.80;;
32613;SDS011;19031;51.400;6.770;2023-12-20T08:26:37;22.63;;;6.47;;
32613;SDS011;19031;51.400;6.770;2023-12-20T08:29:02;18.52;;;5.95;;
32613;SDS011;19031;51.400;6.770;2023-12-20T08:31:28;23.65;;;6.45;;
32613;SDS011;19031;51.400;6.770;2023-12-20T08:33:54;29.48;;;7.15;;
32613;SDS011;19031;51.400;6.770;2023-12-20T08:36:19;26.42;;;6.85;;
32613;SDS011;19031;51.400;6.770;2023-12-20T08:38:47;21.08;;;6.07;;
32613;SDS011;19031;51.400;6.770;2023-12-20T08:41:13;22.25;;;5.57;;
32613;SDS011;19031;51.400;6.770;2023-12-20T08:43:38;19.33;;;5.57;;
32613;SDS011;19031;51.400;6.770;2023-12-20T08:46:07;21.83;;;7.07;;
32613;SDS011;19031;51.400;6.770;2023-12-20T08:48:34;16.35;;;4.47;;
32613;SDS011;19031;51.400;6.770;2023-12-20T08:51:00;21.45;;;5.13;;
32613;SDS011;19031;51.400;6.770;2023-12-20T08:53:26;28.33;;;5.13;;
32613;SDS011;19031;51.400;6.770;2023-12-20T08:55:51;17.95;;;4.53;;
32613;SDS011;19031;51.400;6.770;2023-12-20T08:58:17;16.75;;;4.43;;
32613;SDS011;19031;51.400;6.770;2023-12-20T09:00:43;11.85;;;3.85;;
32613;SDS011;19031;51.400;6.770;2023-12-20T09:03:08;19.80;;;4.93;;
32613;SDS011;19031;51.400;6.770;2023-12-20T09:05:34;21.65;;;4.30;;
32613;SDS011;19031;51.400;6.770;2023-12-20T09:08:00;26.25;;;5.15;;
32613;SDS011;19031;51.400;6.770;2023-12-20T09:10:25;25.02;;;4.22;;
32613;SDS011;19031;51.400;6.770;2023-12-20T09:12:51;22.92;;;5.25;;
32613;SDS011;19031;51.400;6.770;2023-12-20T09:15:23;17.67;;;4.95;;
32613;SDS011;19031;51.400;6.770;2023-12-20T09:17:49;17.42;;;3.90;;
32613;SDS011;19031;51.400;6.770;2023-12-20T09:20:15;19.88;;;4.88;;
32613;SDS011;19031;51.400;6.770;2023-12-20T09:22:40;28.00;;;4.45;;
32613;SDS011;19031;51.400;6.770;2023-12-20T09:25:07;25.85;;;4.93;;
32613;SDS011;19031;51.400;6.770;2023-12-20T09:27:33;23.23;;;5.78;;
32613;SDS011;19031;51.400;6.770;2023-12-20T09:29:58;16.48;;;3.45;;
32613;SDS011;19031;51.400;6.770;2023-12-20T09:32:24;26.92;;;4.40;;
32613;SDS011;19031;51.400;6.770;2023-12-20T09:34:49;21.13;;;5.30;;
32613;SDS011;19031;51.400;6.770;2023-12-20T09:37:15;20.00;;;4.55;;
32613;SDS011;19031;51.400;6.770;2023-12-20T09:39:40;30.38;;;5.10;;
32613;SDS011;19031;51.400;6.770;2023-12-20T09:42:06;20.48;;;4.78;;
32613;SDS011;19031;51.400;6.770;2023-12-20T09:44:32;15.18;;;3.95;;
32613;SDS011;19031;51.400;6.770;2023-12-20T09:47:04;19.17;;;4.55;;
32613;SDS011;19031;51.400;6.770;2023-12-20T09:49:31;26.67;;;5.15;;
32613;SDS011;19031;51.400;6.770;2023-12-20T09:51:58;24.67;;;4.68;;
32613;SDS011;19031;51.400;6.770;2023-12-20T09:54:25;15.82;;;4.45;;
32613;SDS011;19031;51.400;6.770;2023-12-20T09:56:53;17.80;;;4.78;;
32613;SDS011;19031;51.400;6.770;2023-12-20T09:59:19;22.88;;;4.97;;
32613;SDS011;19031;51.400;6.770;2023-12-20T10:01:45;22.42;;;5.15;;
32613;SDS011;19031;51.400;6.770;2023-12-20T10:04:12;18.98;;;4.78;;
32613;SDS011;19031;51.400;6.770;2023-12-20T10:06:41;20.75;;;4.05;;
32613;SDS011;19031;51.400;6.770;2023-12-20T10:09:08;26.40;;;4.55;;
32613;SDS011;19031;51.400;6.770;2023-12-20T10:11:35;26.77;;;4.32;;
32613;SDS011;19031;51.400;6.770;2023-12-20T10:14:02;24.88;;;4.10;;
32613;SDS011;19031;51.400;6.770;2023-12-20T10:16:28;16.83;;;4.72;;
32613;SDS011;19031;51.400;6.770;2023-12-20T10:18:55;18.42;;;4.10;;
32613;SDS011;19031;51.400;6.770;2023-12-20T10:21:24;16.58;;;3.67;;
32613;SDS011;19031;51.400;6.770;2023-12-20T10:23:56;24.17;;;4.63;;
32613;SDS011;19031;51.400;6.770;2023-12-20T10:26:23;17.48;;;4.38;;
32613;SDS011;19031;51.400;6.770;2023-12-20T10:28:56;24.73;;;5.78;;
32613;SDS011;19031;51.400;6.770;2023-12-20T10:31:31;14.82;;;3.63;;
32613;SDS011;19031;51.400;6.770;2023-12-20T10:33:58;22.20;;;5.22;;
32613;SDS011;19031;51.400;6.770;2023-12-20T10:36:31;17.35;;;4.53;;
32613;SDS011;19031;51.400;6.770;2023-12-20T10:38:58;21.10;;;4.25;;
32613;SDS011;19031;51.400;6.770;2023-12-20T10:41:27;20.15;;;4.75;;
32613;SDS011;19031;51.400;6.770;2023-12-20T10:44:03;25.10;;;5.15;;
32613;SDS011;19031;51.400;6.770;2023-12-20T10:46:33;16.27;;;3.40;;
32613;SDS011;19031;51.400;6.770;2023-12-20T10:48:59;16.02;;;3.78;;
32613;SDS011;19031;51.400;6.770;2023-12-20T10:51:27;28.55;;;4.50;;
32613;SDS011;19031;51.400;6.770;2023-12-20T10:53:55;20.60;;;4.35;;
32613;SDS011;19031;51.400;6.770;2023-12-20T10:56:21;23.33;;;4.32;;
32613;SDS011;19031;51.400;6.770;2023-12-20T10:58:50;19.15;;;4.25;;
32613;SDS011;19031;51.400;6.770;2023-12-20T11:01:17;21.00;;;3.95;;
32613;SDS011;19031;51.400;6.770;2023-12-20T11:03:53;26.17;;;5.70;;
32613;SDS011;19031;51.400;6.770;2023-12-20T11:14:14;24.35;;;4.97;;
32613;SDS011;19031;51.400;6.770;2023-12-20T11:16:42;13.20;;;3.83;;
32613;SDS011;19031;51.400;6.770;2023-12-20T11:19:07;21.27;;;5.30;;
32613;SDS011;19031;51.400;6.770;2023-12-20T11:21:33;24.60;;;4.97;;
32613;SDS011;19031;51.400;6.770;2023-12-20T11:23:59;22.45;;;4.43;;
32613;SDS011;19031;51.400;6.770;2023-12-20T11:26:28;17.38;;;4.47;;
32613;SDS011;19031;51.400;6.770;2023-12-20T11:29:02;20.55;;;4.82;;
32613;SDS011;19031;51.400;6.770;2023-12-20T11:31:54;14.32;;;4.38;;
32613;SDS011;19031;51.400;6.770;2023-12-20T11:34:20;16.17;;;4.40;;
32613;SDS011;19031;51.400;6.770;2023-12-20T11:36:45;12.75;;;4.15;;
32613;SDS011;19031;51.400;6.770;2023-12-20T11:39:11;18.38;;;4.70;;
32613;SDS011;19031;51.400;6.770;2023-12-20T11:41:44;17.38;;;4.00;;
32613;SDS011;19031;51.400;6.770;2023-12-20T11:44:09;11.23;;;4.38;;
32613;SDS011;19031;51.400;6.770;2023-12-20T11:46:36;18.27;;;4.25;;
32613;SDS011;19031;51.400;6.770;2023-12-20T11:49:02;21.45;;;5.28;;
32613;SDS011;19031;51.400;6.770;2023-12-20T11:51:28;14.52;;;4.85;;
32613;SDS011;19031;51.400;6.770;2023-12-20T11:53:53;18.73;;;5.05;;
32613;SDS011;19031;51.400;6.770;2023-12-20T11:56:19;23.20;;;4.65;;
32613;SDS011;19031;51.400;6.770;2023-12-20T11:58:45;19.15;;;4.18;;
32613;SDS011;19031;51.400;6.770;2023-12-20T12:01:10;15.52;;;4.82;;
32613;SDS011;19031;51.400;6.770;2023-12-20T12:03:36;15.30;;;4.30;;
32613;SDS011;19031;51.400;6.770;2023-12-20T12:06:02;21.27;;;4.93;;
32613;SDS011;19031;51.400;6.770;2023-12-20T12:08:29;18.65;;;4.40;;
32613;SDS011;19031;51.400;6.770;2023-12-20T12:10:55;19.67;;;4.72;;
32613;SDS011;19031;51.400;6.770;2023-12-20T12:13:20;13.43;;;4.25;;
32613;SDS011;19031;51.400;6.770;2023-12-20T12:15:47;18.85;;;4.85;;
32613;SDS011;19031;51.400;6.770;2023-12-20T12:18:15;22.98;;;4.47;;
32613;SDS011;19031;51.400;6.770;2023-12-20T12:20:41;17.45;;;4.30;;
32613;SDS011;19031;51.400;6.770;2023-12-20T12:23:07;25.70;;;4.65;;
32613;SDS011;19031;51.400;6.770;2023-12-20T12:25:35;21.63;;;4.63;;
32613;SDS011;19031;51.400;6.770;2023-12-20T12:28:04;23.55;;;4.40;;
32613;SDS011;19031;51.400;6.770;2023-12-20T12:30:30;24.80;;;4.88;;
32613;SDS011;19031;51.400;6.770;2023-12-20T12:32:56;20.10;;;4.43;;
32613;SDS011;19031;51.400;6.770;2023-12-20T12:35:22;19.05;;;4.50;;
32613;SDS011;19031;51.400;6.770;2023-12-20T12:37:48;20.75;;;5.25;;
32613;SDS011;19031;51.400;6.770;2023-12-20T12:40:14;25.10;;;4.97;;
32613;SDS011;19031;51.400;6.770;2023-12-20T12:42:41;20.15;;;5.05;;
32613;SDS011;19031;51.400;6.770;2023-12-20T12:45:08;17.65;;;5.45;;
32613;SDS011;19031;51.400;6.770;2023-12-20T12:47:34;20.85;;;4.78;;
32613;SDS011;19031;51.400;6.770;2023-12-20T12:50:00;14.90;;;4.15;;
32613;SDS011;19031;51.400;6.770;2023-12-20T12:52:26;25.35;;;4.85;;
32613;SDS011;19031;51.400;6.770;2023-12-20T12:54:52;14.00;;;4.10;;
32613;SDS011;19031;51.400;6.770;2023-12-20T12:57:18;19.02;;;4.97;;
32613;SDS011;19031;51.400;6.770;2023-12-20T12:59:44;16.83;;;4.22;;
32613;SDS011;19031;51.400;6.770;2023-12-20T13:02:11;18.23;;;4.53;;
32613;SDS011;19031;51.400;6.770;2023-12-20T13:04:38;16.00;;;4.80;;
32613;SDS011;19031;51.400;6.770;2023-12-20T13:07:04;23.70;;;4.70;;
32613;SDS011;19031;51.400;6.770;2023-12-20T13:09:30;16.25;;;4.97;;
32613;SDS011;19031;51.400;6.770;2023-12-20T13:11:56;14.30;;;4.60;;
32613;SDS011;19031;51.400;6.770;2023-12-20T13:14:21;14.95;;;4.57;;
32613;SDS011;19031;51.400;6.770;2023-12-20T13:16:47;13.93;;;4.47;;
32613;SDS011;19031;51.400;6.770;2023-12-20T13:19:13;18.73;;;5.10;;
32613;SDS011;19031;51.400;6.770;2023-12-20T13:21:39;16.60;;;5.10;;
32613;SDS011;19031;51.400;6.770;2023-12-20T13:24:05;21.50;;;5.05;;
32613;SDS011;19031;51.400;6.770;2023-12-20T13:26:31;17.05;;;5.30;;
32613;SDS011;19031;51.400;6.770;2023-12-20T13:28:57;13.40;;;4.85;;
32613;SDS011;19031;51.400;6.770;2023-12-20T13:31:23;21.33;;;6.07;;
32613;SDS011;19031;51.400;6.770;2023-12-20T13:33:49;15.77;;;4.72;;
32613;SDS011;19031;51.400;6.770;2023-12-20T13:36:16;24.92;;;5.35;;
32613;SDS011;19031;51.400;6.770;2023-12-20T13:38:42;20.48;;;7.00;;
32613;SDS011;19031;51.400;6.770;2023-12-20T13:41:08;16.80;;;5.60;;
32613;SDS011;19031;51.400;6.770;2023-12-20T13:43:34;17.40;;;6.32;;
32613;SDS011;19031;51.400;6.770;2023-12-20T13:46:00;21.98;;;5.80;;
32613;SDS011;19031;51.400;6.770;2023-12-20T13:48:25;17.10;;;6.25;;
32613;SDS011;19031;51.400;6.770;2023-12-20T13:50:51;21.73;;;6.07;;
32613;SDS011;19031;51.400;6.770;2023-12-20T13:53:17;15.55;;;6.15;;
32613;SDS011;19031;51.400;6.770;2023-12-20T13:55:42;15.80;;;6.65;;
32613;SDS011;19031;51.400;6.770;2023-12-20T13:58:08;20.45;;;7.10;;
32613;SDS011;19031;51.400;6.770;2023-12-20T14:00:35;17.55;;;7.03;;
32613;SDS011;19031;51.400;6.770;2023-12-20T14:03:01;18.73;;;7.82;;
32613;SDS011;19031;51.400;6.770;2023-12-20T14:05:28;24.25;;;7.35;;
32613;SDS011;19031;51.400;6.770;2023-12-20T14:07:53;24.95;;;7.80;;
32613;SDS011;19031;51.400;6.770;2023-12-20T14:10:19;21.80;;;7.90;;
32613;SDS011;19031;51.400;6.770;2023-12-20T14:12:44;21.40;;;7.25;;
32613;SDS011;19031;51.400;6.770;2023-12-20T14:15:10;26.92;;;8.27;;
32613;SDS011;19031;51.400;6.770;2023-12-20T14:17:38;20.80;;;8.80;;
32613;SDS011;19031;51.400;6.770;2023-12-20T14:20:05;16.05;;;7.45;;
32613;SDS011;19031;51.400;6.770;2023-12-20T14:22:32;26.77;;;7.32;;
32613;SDS011;19031;51.400;6.770;2023-12-20T14:24:57;27.50;;;8.30;;
32613;SDS011;19031;51.400;6.770;2023-12-20T14:27:23;24.30;;;8.05;;
32613;SDS011;19031;51.400;6.770;2023-12-20T14:29:52;26.00;;;7.00;;
32613;SDS011;19031;51.400;6.770;2023-12-20T14:32:18;26.75;;;7.53;;
32613;SDS011;19031;51.400;6.770;2023-12-20T14:34:44;23.48;;;7.05;;